sensor_id;sensor_type;location;lat;lon;timestamp;pressure;altitude;pressure_sealevel;temperature;humidity
69784;BME280;57054;51.978;4.498;2023-12-20T00:01:32;101642.97;;;6.61;100.00
69784;BME280;57054;51.978;4.498;2023-12-20T00:03:57;101639.47;;;6.62;100.00
69784;BME280;57054;51.978;4.498;2023-12-20T00:06:23;101644.66;;;6.63;100.00
69784;BME280;57054;51.978;4.498;2023-12-20T00:08:48;101633.38;;;6.64;100.00
69784;BME280;57054;51.978;4.498;2023-12-20T00:11:13;101637.75;;;6.61;100.00
69784;BME280;57054;51.978;4.498;2023-12-20T00:13:39;101638.59;;;6.64;100.00
69784;BME280;57054;51.978;4.498;2023-12-20T00:16:04;101633.31;;;6.67;100.00
69784;BME280;57054;51.978;4.498;2023-12-20T00:18:30;101630.78;;;6.64;100.00
69784;BME280;57054;51.978;4.498;2023-12-20T00:20:55;101630.72;;;6.67;100.00
69784;BME280;57054;51.978;4.498;2023-12-20T00:23:20;101632.44;;;6.70;100.00
69784;BME280;57054;51.978;4.498;2023-12-20T00:25:46;101633.38;;;6.66;100.00
69784;BME280;57054;51.978;4.498;2023-12-20T00:28:11;101625.50;;;6.69;100.00
69784;BME280;57054;51.978;4.498;2023-12-20T00:30:36;101632.44;;;6.71;100.00
69784;BME280;57054;51.978;4.498;2023-12-20T00:33:02;101632.50;;;6.64;100.00
69784;BME280;57054;51.978;4.498;2023-12-20T00:35:27;101631.66;;;6.63;100.00
69784;BME280;57054;51.978;4.498;2023-12-20T00:37:53;101638.59;;;6.64;100.00
69784;BME280;57054;51.978;4.498;2023-12-20T00:40:18;101644.63;;;6.68;100.00
69784;BME280;57054;51.978;4.498;2023-12-20T00:42:43;101646.34;;;6.67;100.00
69784;BME280;57054;51.978;4.498;2023-12-20T00:45:09;101640.28;;;6.68;100.00
69784;BME280;57054;51.978;4.498;2023-12-20T00:47:34;101648.94;;;6.69;100.00
69784;BME280;57054;51.978;4.498;2023-12-20T00:50:00;101631.66;;;6.62;100.00
69784;BME280;57054;51.978;4.498;2023-12-20T00:52:25;101633.44;;;6.60;100.00
69784;BME280;57054;51.978;4.498;2023-12-20T00:54:51;101624.69;;;6.64;100.00
69784;BME280;57054;51.978;4.498;2023-12-20T00:57:17;101629.03;;;6.65;100.00
69784;BME280;57054;51.978;4.498;2023-12-20T00:59:42;101623.81;;;6.68;100.00
69784;BME280;57054;51.978;4.498;2023-12-20T01:02:08;101637.69;;;6.67;100.00
69784;BME280;57054;51.978;4.498;2023-12-20T01:04:34;101640.34;;;6.62;100.00
69784;BME280;57054;51.978;4.498;2023-12-20T01:06:59;101649.03;;;6.63;100.00
69784;BME280;57054;51.978;4.498;2023-12-20T01:09:24;101643.78;;;6.64;100.00
69784;BME280;57054;51.978;4.498;2023-12-20T01:11:52;101642.88;;;6.67;100.00
69784;BME280;57054;51.978;4.498;2023-12-20T01:14:17;101646.34;;;6.67;100.00
69784;BME280;57054;51.978;4.498;2023-12-20T01:16:43;101640.28;;;6.68;100.00
69784;BME280;57054;51.978;4.498;2023-12-20T01:19:08;101635.06;;;6.70;100.00
69784;BME280;57054;51.978;4.498;2023-12-20T01:21:33;101638.47;;;6.75;100.00
69784;BME280;57054;51.978;4.498;2023-12-20T01:23:58;101641.09;;;6.73;100.00
69784;BME280;57054;51.978;4.498;2023-12-20T01:26:24;101634.16;;;6.72;100.00
69784;BME280;57054;51.978;4.498;2023-12-20T01:28:49;101635.94;;;6.67;100.00
69784;BME280;57054;51.978;4.498;2023-12-20T01:31:14;101636.75;;;6.71;100.00
69784;BME280;57054;51.978;4.498;2023-12-20T01:33:40;101638.50;;;6.72;100.00
69784;BME280;57054;51.978;4.498;2023-12-20T01:36:05;101642.78;;;6.75;100.00
69784;BME280;57054;51.978;4.498;2023-12-20T01:38:31;101635.06;;;6.70;100.00
69784;BME280;57054;51.978;4.498;2023-12-20T01:40:56;101634.16;;;6.72;100.00
69784;BME280;57054;51.978;4.498;2023-12-20T01:43:21;101633.28;;;6.73;100.00
69784;BME280;57054;51.978;4.498;2023-12-20T01:45:47;101628.06;;;6.73;100.00
69784;BME280;57054;51.978;4.498;2023-12-20T01:48:14;101620.28;;;6.72;100.00
69784;BME280;57054;51.978;4.498;2023-12-20T01:50:41;101626.34;;;6.71;100.00
69784;BME280;57054;51.978;4.498;2023-12-20T01:53:08;101632.44;;;6.71;100.00
69784;BME280;57054;51.978;4.498;2023-12-20T01:55:36;101626.41;;;6.68;100.00
69784;BME280;57054;51.978;4.498;2023-12-20T01:58:04;101634.16;;;6.72;100.00
69784;BME280;57054;51.978;4.498;2023-12-20T02:00:30;101631.56;;;6.71;100.00
69784;BME280;57054;51.978;4.498;2023-12-20T02:02:57;101636.75;;;6.72;100.00
69784;BME280;57054;51.978;4.498;2023-12-20T02:05:26;101648.91;;;6.73;100.00
69784;BME280;57054;51.978;4.498;2023-12-20T02:07:53;101633.31;;;6.70;100.00
69784;BME280;57054;51.978;4.498;2023-12-20T02:10:18;101634.16;;;6.72;100.00
69784;BME280;57054;51.978;4.498;2023-12-20T02:12:43;101641.94;;;6.74;100.00
69784;BME280;57054;51.978;4.498;2023-12-20T02:15:09;101638.47;;;6.73;100.00
69784;BME280;57054;51.978;4.498;2023-12-20T02:17:35;101638.47;;;6.73;100.00
69784;BME280;57054;51.978;4.498;2023-12-20T02:20:00;101635.88;;;6.73;100.00
69784;BME280;57054;51.978;4.498;2023-12-20T02:22:26;101621.97;;;6.73;100.00
69784;BME280;57054;51.978;4.498;2023-12-20T02:24:51;101625.50;;;6.69;100.00
69784;BME280;57054;51.978;4.498;2023-12-20T02:27:19;101633.28;;;6.72;100.00
69784;BME280;57054;51.978;4.498;2023-12-20T02:29:47;101624.63;;;6.70;100.00
69784;BME280;57054;51.978;4.498;2023-12-20T02:32:12;101617.69;;;6.69;100.00
69784;BME280;57054;51.978;4.498;2023-12-20T02:34:38;101616.88;;;6.65;100.00
69784;BME280;57054;51.978;4.498;2023-12-20T02:37:03;101616.00;;;6.68;100.00
69784;BME280;57054;51.978;4.498;2023-12-20T02:39:28;101611.66;;;6.67;100.00
69784;BME280;57054;51.978;4.498;2023-12-20T02:41:54;101610.91;;;6.59;100.00
69784;BME280;57054;51.978;4.498;2023-12-20T02:44:19;101610.00;;;6.60;100.00
69784;BME280;57054;51.978;4.498;2023-12-20T02:46:44;101612.59;;;6.61;100.00
69784;BME280;57054;51.978;4.498;2023-12-20T02:49:10;101626.44;;;6.63;100.00
69784;BME280;57054;51.978;4.498;2023-12-20T02:51:35;101622.06;;;6.65;100.00
69784;BME280;57054;51.978;4.498;2023-12-20T02:54:04;101610.78;;;6.68;100.00
69784;BME280;57054;51.978;4.498;2023-12-20T02:56:29;101604.69;;;6.67;100.00
69784;BME280;57054;51.978;4.498;2023-12-20T02:58:54;101608.19;;;6.68;100.00
69784;BME280;57054;51.978;4.498;2023-12-20T03:01:20;101589.06;;;6.67;100.00
69784;BME280;57054;51.978;4.498;2023-12-20T03:03:45;101588.22;;;6.67;100.00
69784;BME280;57054;51.978;4.498;2023-12-20T03:06:10;101591.69;;;6.67;100.00
69784;BME280;57054;51.978;4.498;2023-12-20T03:08:36;101576.97;;;6.65;100.00
69784;BME280;57054;51.978;4.498;2023-12-20T03:11:01;101580.50;;;6.62;100.00
69784;BME280;57054;51.978;4.498;2023-12-20T03:13:26;101587.38;;;6.65;100.00
69784;BME280;57054;51.978;4.498;2023-12-20T03:15:52;101596.09;;;6.62;100.00
69784;BME280;57054;51.978;4.498;2023-12-20T03:18:17;101590.03;;;6.62;100.00
69784;BME280;57054;51.978;4.498;2023-12-20T03:20:43;101591.75;;;6.63;100.00
69784;BME280;57054;51.978;4.498;2023-12-20T03:23:09;101589.16;;;6.61;100.00
69784;BME280;57054;51.978;4.498;2023-12-20T03:25:34;101591.75;;;6.64;100.00
69784;BME280;57054;51.978;4.498;2023-12-20T03:28:00;101598.72;;;6.62;100.00
69784;BME280;57054;51.978;4.498;2023-12-20T03:30:25;101589.16;;;6.61;100.00
69784;BME280;57054;51.978;4.498;2023-12-20T03:32:51;101583.94;;;6.64;100.00
69784;BME280;57054;51.978;4.498;2023-12-20T03:35:16;101597.00;;;6.60;100.00
69784;BME280;57054;51.978;4.498;2023-12-20T03:37:41;101597.84;;;6.60;100.00
69784;BME280;57054;51.978;4.498;2023-12-20T03:40:07;101606.56;;;6.56;100.00
69784;BME280;57054;51.978;4.498;2023-12-20T03:42:32;101596.16;;;6.58;100.00
69784;BME280;57054;51.978;4.498;2023-12-20T03:44:58;101615.28;;;6.55;100.00
69784;BME280;57054;51.978;4.498;2023-12-20T03:47:23;101603.13;;;6.56;100.00
69784;BME280;57054;51.978;4.498;2023-12-20T03:49:48;101604.00;;;6.53;100.00
69784;BME280;57054;51.978;4.498;2023-12-20T03:52:13;101609.19;;;6.54;100.00
69784;BME280;57054;51.978;4.498;2023-12-20T03:54:39;101588.38;;;6.54;100.00
69784;BME280;57054;51.978;4.498;2023-12-20T03:57:06;101584.91;;;6.54;100.00
69784;BME280;57054;51.978;4.498;2023-12-20T03:59:36;101591.78;;;6.58;100.00
69784;BME280;57054;51.978;4.498;2023-12-20T04:02:01;101590.97;;;6.54;100.00
69784;BME280;57054;51.978;4.498;2023-12-20T04:04:27;101585.75;;;6.58;100.00
69784;BME280;57054;51.978;4.498;2023-12-20T04:06:52;101583.16;;;6.56;100.00
69784;BME280;57054;51.978;4.498;2023-12-20T04:09:17;101586.56;;;6.61;100.00
69784;BME280;57054;51.978;4.498;2023-12-20T04:11:43;101590.84;;;6.64;100.00
69784;BME280;57054;51.978;4.498;2023-12-20T04:14:08;101590.91;;;6.61;100.00
69784;BME280;57054;51.978;4.498;2023-12-20T04:16:34;101590.00;;;6.63;100.00
69784;BME280;57054;51.978;4.498;2023-12-20T04:18:59;101591.78;;;6.61;100.00
69784;BME280;57054;51.978;4.498;2023-12-20T04:21:26;101590.09;;;6.57;100.00
69784;BME280;57054;51.978;4.498;2023-12-20T04:23:51;101593.53;;;6.59;100.00
69784;BME280;57054;51.978;4.498;2023-12-20T04:26:17;101584.00;;;6.58;100.00
69784;BME280;57054;51.978;4.498;2023-12-20T04:28:42;101579.69;;;6.57;100.00
69784;BME280;57054;51.978;4.498;2023-12-20T04:31:07;101577.03;;;6.60;100.00
69784;BME280;57054;51.978;4.498;2023-12-20T04:33:33;101576.25;;;6.53;100.00
69784;BME280;57054;51.978;4.498;2023-12-20T04:35:58;101593.56;;;6.54;100.00
69784;BME280;57054;51.978;4.498;2023-12-20T04:38:25;101576.28;;;6.49;100.00
69784;BME280;57054;51.978;4.498;2023-12-20T04:40:50;101572.81;;;6.50;100.00
69784;BME280;57054;51.978;4.498;2023-12-20T04:43:15;101570.25;;;6.48;100.00
69784;BME280;57054;51.978;4.498;2023-12-20T04:45:41;101570.25;;;6.48;100.00
69784;BME280;57054;51.978;4.498;2023-12-20T04:48:06;101559.84;;;6.47;100.00
69784;BME280;57054;51.978;4.498;2023-12-20T04:50:31;101555.53;;;6.44;100.00
69784;BME280;57054;51.978;4.498;2023-12-20T04:52:57;101558.09;;;6.47;100.00
69784;BME280;57054;51.978;4.498;2023-12-20T04:55:22;101545.13;;;6.46;100.00
69784;BME280;57054;51.978;4.498;2023-12-20T04:57:48;101562.41;;;6.50;100.00
69784;BME280;57054;51.978;4.498;2023-12-20T05:00:13;101551.09;;;6.51;100.00
69784;BME280;57054;51.978;4.498;2023-12-20T05:02:40;101551.09;;;6.51;100.00
69784;BME280;57054;51.978;4.498;2023-12-20T05:05:06;101552.00;;;6.51;100.00
69784;BME280;57054;51.978;4.498;2023-12-20T05:07:32;101552.88;;;6.47;100.00
69784;BME280;57054;51.978;4.498;2023-12-20T05:09:58;101572.00;;;6.45;100.00
69784;BME280;57054;51.978;4.498;2023-12-20T05:12:23;101567.66;;;6.45;100.00
69784;BME280;57054;51.978;4.498;2023-12-20T05:14:49;101573.75;;;6.46;100.00
69784;BME280;57054;51.978;4.498;2023-12-20T05:17:14;101573.75;;;6.46;100.00
69784;BME280;57054;51.978;4.498;2023-12-20T05:19:39;101569.41;;;6.45;100.00
69784;BME280;57054;51.978;4.498;2023-12-20T05:22:05;101571.16;;;6.46;100.00
69784;BME280;57054;51.978;4.498;2023-12-20T05:24:30;101571.19;;;6.43;100.00
69784;BME280;57054;51.978;4.498;2023-12-20T05:26:55;101567.72;;;6.41;100.00
69784;BME280;57054;51.978;4.498;2023-12-20T05:29:21;101574.63;;;6.43;100.00
69784;BME280;57054;51.978;4.498;2023-12-20T05:31:46;101568.59;;;6.40;100.00
69784;BME280;57054;51.978;4.498;2023-12-20T05:34:12;101562.53;;;6.41;100.00
69784;BME280;57054;51.978;4.498;2023-12-20T05:36:37;101555.59;;;6.40;100.00
69784;BME280;57054;51.978;4.498;2023-12-20T05:39:04;101562.47;;;6.44;100.00
69784;BME280;57054;51.978;4.498;2023-12-20T05:41:30;101552.06;;;6.45;100.00
69784;BME280;57054;51.978;4.498;2023-12-20T05:43:56;101560.69;;;6.49;100.00
69784;BME280;57054;51.978;4.498;2023-12-20T05:46:23;101552.84;;;6.52;100.00
69784;BME280;57054;51.978;4.498;2023-12-20T05:48:48;101560.63;;;6.53;100.00
69784;BME280;57054;51.978;4.498;2023-12-20T05:51:14;101555.41;;;6.55;100.00
69784;BME280;57054;51.978;4.498;2023-12-20T05:53:39;101551.94;;;6.53;100.00
69784;BME280;57054;51.978;4.498;2023-12-20T05:56:05;101556.31;;;6.51;100.00
69784;BME280;57054;51.978;4.498;2023-12-20T05:58:30;101558.88;;;6.54;100.00
69784;BME280;57054;51.978;4.498;2023-12-20T06:00:55;101558.03;;;6.53;100.00
69784;BME280;57054;51.978;4.498;2023-12-20T06:03:21;101564.06;;;6.57;100.00
69784;BME280;57054;51.978;4.498;2023-12-20T06:05:46;101568.34;;;6.61;100.00
69784;BME280;57054;51.978;4.498;2023-12-20T06:08:11;101575.31;;;6.61;100.00
69784;BME280;57054;51.978;4.498;2023-12-20T06:10:37;101567.47;;;6.62;100.00
69784;BME280;57054;51.978;4.498;2023-12-20T06:13:03;101570.91;;;6.66;100.00
69784;BME280;57054;51.978;4.498;2023-12-20T06:15:29;101563.03;;;6.67;100.00
69784;BME280;57054;51.978;4.498;2023-12-20T06:17:54;101566.56;;;6.63;100.00
69784;BME280;57054;51.978;4.498;2023-12-20T06:20:20;101557.91;;;6.63;100.00
69784;BME280;57054;51.978;4.498;2023-12-20T06:22:45;101553.56;;;6.65;100.00
69784;BME280;57054;51.978;4.498;2023-12-20T06:25:10;101546.56;;;6.67;100.00
69784;BME280;57054;51.978;4.498;2023-12-20T06:27:36;101560.44;;;6.67;100.00
69784;BME280;57054;51.978;4.498;2023-12-20T06:30:01;101551.78;;;6.67;100.00
69784;BME280;57054;51.978;4.498;2023-12-20T06:32:27;101544.81;;;6.67;100.00
69784;BME280;57054;51.978;4.498;2023-12-20T06:34:54;101559.56;;;6.68;100.00
69784;BME280;57054;51.978;4.498;2023-12-20T06:37:19;101563.84;;;6.72;100.00
69784;BME280;57054;51.978;4.498;2023-12-20T06:39:45;101544.75;;;6.73;100.00
69784;BME280;57054;51.978;4.498;2023-12-20T06:42:10;101554.28;;;6.73;100.00
69784;BME280;57054;51.978;4.498;2023-12-20T06:44:35;101555.19;;;6.72;100.00
69784;BME280;57054;51.978;4.498;2023-12-20T06:47:02;101553.44;;;6.72;100.00
69784;BME280;57054;51.978;4.498;2023-12-20T06:49:27;101559.50;;;6.73;100.00
69784;BME280;57054;51.978;4.498;2023-12-20T06:51:52;101543.03;;;6.72;100.00
69784;BME280;57054;51.978;4.498;2023-12-20T06:54:18;101546.47;;;6.73;100.00
69784;BME280;57054;51.978;4.498;2023-12-20T06:56:43;101547.38;;;6.73;100.00
69784;BME280;57054;51.978;4.498;2023-12-20T06:59:09;101533.44;;;6.75;100.00
69784;BME280;57054;51.978;4.498;2023-12-20T07:01:34;101543.88;;;6.75;100.00
69784;BME280;57054;51.978;4.498;2023-12-20T07:03:59;101534.38;;;6.70;100.00
69784;BME280;57054;51.978;4.498;2023-12-20T07:06:25;101525.72;;;6.70;100.00
69784;BME280;57054;51.978;4.498;2023-12-20T07:08:51;101533.56;;;6.65;100.00
69784;BME280;57054;51.978;4.498;2023-12-20T07:11:17;101530.97;;;6.67;100.00
69784;BME280;57054;51.978;4.498;2023-12-20T07:13:42;101534.50;;;6.61;100.00
69784;BME280;57054;51.978;4.498;2023-12-20T07:16:07;101529.31;;;6.61;100.00
69784;BME280;57054;51.978;4.498;2023-12-20T07:18:33;101529.34;;;6.58;100.00
69784;BME280;57054;51.978;4.498;2023-12-20T07:20:58;101531.06;;;6.59;100.00
69784;BME280;57054;51.978;4.498;2023-12-20T07:23:23;101522.44;;;6.56;100.00
69784;BME280;57054;51.978;4.498;2023-12-20T07:25:50;101526.78;;;6.55;100.00
69784;BME280;57054;51.978;4.498;2023-12-20T07:28:16;101519.00;;;6.55;100.00
69784;BME280;57054;51.978;4.498;2023-12-20T07:30:41;101523.28;;;6.56;100.00
69784;BME280;57054;51.978;4.498;2023-12-20T07:33:06;101525.00;;;6.59;100.00
69784;BME280;57054;51.978;4.498;2023-12-20T07:35:34;101523.28;;;6.58;100.00
69784;BME280;57054;51.978;4.498;2023-12-20T07:37:59;101520.69;;;6.56;100.00
69784;BME280;57054;51.978;4.498;2023-12-20T07:40:25;101524.97;;;6.60;100.00
69784;BME280;57054;51.978;4.498;2023-12-20T07:42:50;101527.66;;;6.56;100.00
69784;BME280;57054;51.978;4.498;2023-12-20T07:45:15;101536.28;;;6.59;100.00
69784;BME280;57054;51.978;4.498;2023-12-20T07:47:41;101527.66;;;6.56;100.00
69784;BME280;57054;51.978;4.498;2023-12-20T07:50:06;101550.16;;;6.58;100.00
69784;BME280;57054;51.978;4.498;2023-12-20T07:52:32;101550.13;;;6.60;100.00
69784;BME280;57054;51.978;4.498;2023-12-20T07:54:57;101553.59;;;6.60;100.00
69784;BME280;57054;51.978;4.498;2023-12-20T07:57:23;101547.50;;;6.64;100.00
69784;BME280;57054;51.978;4.498;2023-12-20T07:59:49;101552.72;;;6.63;100.00
69784;BME280;57054;51.978;4.498;2023-12-20T08:02:14;101554.41;;;6.64;100.00
69784;BME280;57054;51.978;4.498;2023-12-20T08:04:40;101563.03;;;6.67;100.00
69784;BME280;57054;51.978;4.498;2023-12-20T08:07:06;101565.66;;;6.67;100.00
69784;BME280;57054;51.978;4.498;2023-12-20T08:09:32;101565.63;;;6.70;100.00
69784;BME280;57054;51.978;4.498;2023-12-20T08:11:58;101568.19;;;6.73;100.00
69784;BME280;57054;51.978;4.498;2023-12-20T08:14:25;101549.91;;;6.77;100.00
69784;BME280;57054;51.978;4.498;2023-12-20T08:16:50;101564.66;;;6.79;100.00
69784;BME280;57054;51.978;4.498;2023-12-20T08:19:15;101552.47;;;6.81;100.00
69784;BME280;57054;51.978;4.498;2023-12-20T08:21:41;101540.28;;;6.83;100.00
69784;BME280;57054;51.978;4.498;2023-12-20T08:24:07;101532.47;;;6.83;100.00
69784;BME280;57054;51.978;4.498;2023-12-20T08:26:33;101538.50;;;6.85;100.00
69784;BME280;57054;51.978;4.498;2023-12-20T08:28:58;101530.69;;;6.85;100.00
69784;BME280;57054;51.978;4.498;2023-12-20T08:31:23;101532.41;;;6.89;100.00
69784;BME280;57054;51.978;4.498;2023-12-20T08:33:49;101532.34;;;6.91;100.00
69784;BME280;57054;51.978;4.498;2023-12-20T08:36:15;101539.31;;;6.90;100.00
69784;BME280;57054;51.978;4.498;2023-12-20T08:38:42;101555.78;;;6.92;100.00
69784;BME280;57054;51.978;4.498;2023-12-20T08:41:08;101561.81;;;6.95;100.00
69784;BME280;57054;51.978;4.498;2023-12-20T08:43:36;101567.91;;;6.95;100.00
69784;BME280;57054;51.978;4.498;2023-12-20T08:46:02;101575.66;;;6.98;100.00
69784;BME280;57054;51.978;4.498;2023-12-20T08:48:28;101580.84;;;7.00;100.00
69784;BME280;57054;51.978;4.498;2023-12-20T08:50:53;101580.84;;;7.01;100.00
69784;BME280;57054;51.978;4.498;2023-12-20T08:53:19;101575.59;;;7.04;100.00
69784;BME280;57054;51.978;4.498;2023-12-20T08:55:44;101566.00;;;7.06;100.00
69784;BME280;57054;51.978;4.498;2023-12-20T08:58:10;101566.84;;;7.07;100.00
69784;BME280;57054;51.978;4.498;2023-12-20T09:00:35;101565.09;;;7.09;100.00
69784;BME280;57054;51.978;4.498;2023-12-20T09:03:01;101558.09;;;7.13;100.00
69784;BME280;57054;51.978;4.498;2023-12-20T09:05:27;101563.28;;;7.14;100.00
69784;BME280;57054;51.978;4.498;2023-12-20T09:07:53;101558.91;;;7.16;100.00
69784;BME280;57054;51.978;4.498;2023-12-20T09:10:18;101557.16;;;7.17;100.00
69784;BME280;57054;51.978;4.498;2023-12-20T09:12:47;101546.69;;;7.20;100.00
69784;BME280;57054;51.978;4.498;2023-12-20T09:15:16;101545.00;;;7.19;100.00
69784;BME280;57054;51.978;4.498;2023-12-20T09:17:41;101536.28;;;7.20;100.00
69784;BME280;57054;51.978;4.498;2023-12-20T09:20:07;101548.44;;;7.21;100.00
69784;BME280;57054;51.978;4.498;2023-12-20T09:22:34;101542.28;;;7.25;100.00
69784;BME280;57054;51.978;4.498;2023-12-20T09:24:59;101538.75;;;7.27;100.00
69784;BME280;57054;51.978;4.498;2023-12-20T09:27:25;101547.44;;;7.28;100.00
69784;BME280;57054;51.978;4.498;2023-12-20T09:29:50;101539.63;;;7.28;100.00
69784;BME280;57054;51.978;4.498;2023-12-20T09:32:16;101550.03;;;7.29;100.00
69784;BME280;57054;51.978;4.498;2023-12-20T09:34:41;101547.38;;;7.31;100.00
69784;BME280;57054;51.978;4.498;2023-12-20T09:37:07;101552.56;;;7.34;100.00
69784;BME280;57054;51.978;4.498;2023-12-20T09:39:33;101552.53;;;7.36;100.00
69784;BME280;57054;51.978;4.498;2023-12-20T09:42:03;101551.69;;;7.35;100.00
69784;BME280;57054;51.978;4.498;2023-12-20T09:44:29;101539.50;;;7.37;100.00
69784;BME280;57054;51.978;4.498;2023-12-20T09:46:56;101547.28;;;7.39;100.00
69784;BME280;57054;51.978;4.498;2023-12-20T09:49:22;101559.41;;;7.41;100.00
69784;BME280;57054;51.978;4.498;2023-12-20T09:51:50;101573.25;;;7.43;100.00
69784;BME280;57054;51.978;4.498;2023-12-20T09:54:20;101562.81;;;7.45;100.00
69784;BME280;57054;51.978;4.498;2023-12-20T09:56:46;101556.69;;;7.47;100.00
69784;BME280;57054;51.978;4.498;2023-12-20T09:59:12;101558.41;;;7.48;100.00
69784;BME280;57054;51.978;4.498;2023-12-20T10:01:41;101560.09;;;7.51;100.00
69784;BME280;57054;51.978;4.498;2023-12-20T10:04:09;101560.16;;;7.49;100.00
69784;BME280;57054;51.978;4.498;2023-12-20T10:06:36;101545.34;;;7.50;100.00
69784;BME280;57054;51.978;4.498;2023-12-20T10:09:02;101554.88;;;7.51;100.00
69784;BME280;57054;51.978;4.498;2023-12-20T10:11:27;101562.69;;;7.51;100.00
69784;BME280;57054;51.978;4.498;2023-12-20T10:13:59;101554.84;;;7.54;100.00
69784;BME280;57054;51.978;4.498;2023-12-20T10:16:25;101551.34;;;7.57;100.00
69784;BME280;57054;51.978;4.498;2023-12-20T10:18:56;101549.56;;;7.59;100.00
69784;BME280;57054;51.978;4.498;2023-12-20T10:21:25;101552.09;;;7.62;100.00
69784;BME280;57054;51.978;4.498;2023-12-20T10:23:52;101554.69;;;7.62;100.00
69784;BME280;57054;51.978;4.498;2023-12-20T10:26:24;101544.22;;;7.65;100.00
69784;BME280;57054;51.978;4.498;2023-12-20T10:28:54;101547.66;;;7.68;100.00
69784;BME280;57054;51.978;4.498;2023-12-20T10:31:30;101545.91;;;7.69;100.00
69784;BME280;57054;51.978;4.498;2023-12-20T10:33:57;101550.22;;;7.70;100.00
69784;BME280;57054;51.978;4.498;2023-12-20T10:36:24;101550.22;;;7.72;100.00
69784;BME280;57054;51.978;4.498;2023-12-20T10:38:52;101549.28;;;7.74;100.00
69784;BME280;57054;51.978;4.498;2023-12-20T10:41:26;101557.97;;;7.75;100.00
69784;BME280;57054;51.978;4.498;2023-12-20T10:43:54;101537.97;;;7.75;100.00
69784;BME280;57054;51.978;4.498;2023-12-20T10:46:20;101532.69;;;7.78;100.00
69784;BME280;57054;51.978;4.498;2023-12-20T10:48:46;101529.22;;;7.78;100.00
69784;BME280;57054;51.978;4.498;2023-12-20T10:51:14;101524.88;;;7.78;100.00
69784;BME280;57054;51.978;4.498;2023-12-20T10:53:42;101525.69;;;7.80;100.00
69784;BME280;57054;51.978;4.498;2023-12-20T10:56:12;101528.25;;;7.83;100.00
69784;BME280;57054;51.978;4.498;2023-12-20T10:58:41;101516.94;;;7.86;100.00
69784;BME280;57054;51.978;4.498;2023-12-20T11:01:08;101520.38;;;7.86;100.00
69784;BME280;57054;51.978;4.498;2023-12-20T11:03:35;101526.41;;;7.90;100.00
69784;BME280;57054;51.978;4.498;2023-12-20T11:14:20;101515.00;;;7.96;100.00
69784;BME280;57054;51.978;4.498;2023-12-20T11:16:47;101502.81;;;7.95;100.00
69784;BME280;57054;51.978;4.498;2023-12-20T11:19:12;101508.91;;;7.97;100.00
69784;BME280;57054;51.978;4.498;2023-12-20T11:21:41;101512.38;;;7.97;100.00
69784;BME280;57054;51.978;4.498;2023-12-20T11:24:06;101509.72;;;7.99;100.00
69784;BME280;57054;51.978;4.498;2023-12-20T11:26:32;101518.44;;;7.98;100.00
69784;BME280;57054;51.978;4.498;2023-12-20T11:31:54;101497.53;;;7.99;100.00
69784;BME280;57054;51.978;4.498;2023-12-20T11:34:19;101494.91;;;8.01;100.00
69784;BME280;57054;51.978;4.498;2023-12-20T11:36:45;101480.97;;;8.00;100.00
69784;BME280;57054;51.978;4.498;2023-12-20T11:39:10;101480.97;;;8.02;100.00
69784;BME280;57054;51.978;4.498;2023-12-20T11:41:36;101464.44;;;8.03;100.00
69784;BME280;57054;51.978;4.498;2023-12-20T11:44:04;101465.28;;;8.03;100.00
69784;BME280;57054;51.978;4.498;2023-12-20T11:46:31;101472.25;;;8.03;100.00
69784;BME280;57054;51.978;4.498;2023-12-20T11:48:56;101490.50;;;8.04;100.00
69784;BME280;57054;51.978;4.498;2023-12-20T11:51:22;101478.28;;;8.05;100.00
69784;BME280;57054;51.978;4.498;2023-12-20T11:53:51;101473.91;;;8.07;100.00
69784;BME280;57054;51.978;4.498;2023-12-20T11:56:18;101491.28;;;8.08;100.00
69784;BME280;57054;51.978;4.498;2023-12-20T11:58:44;101465.19;;;8.08;100.00
69784;BME280;57054;51.978;4.498;2023-12-20T12:01:09;101471.25;;;8.10;100.00
69784;BME280;57054;51.978;4.498;2023-12-20T12:03:34;101479.06;;;8.10;100.00
69784;BME280;57054;51.978;4.498;2023-12-20T12:06:00;101487.72;;;8.12;100.00
69784;BME280;57054;51.978;4.498;2023-12-20T12:08:26;101479.03;;;8.13;100.00
69784;BME280;57054;51.978;4.498;2023-12-20T12:10:51;101477.22;;;8.15;100.00
69784;BME280;57054;51.978;4.498;2023-12-20T12:13:17;101478.97;;;8.15;100.00
69784;BME280;57054;51.978;4.498;2023-12-20T12:15:42;101471.13;;;8.15;100.00
69784;BME280;57054;51.978;4.498;2023-12-20T12:18:08;101470.28;;;8.14;100.00
69784;BME280;57054;51.978;4.498;2023-12-20T12:20:34;101475.50;;;8.14;100.00
69784;BME280;57054;51.978;4.498;2023-12-20T12:23:01;101455.47;;;8.15;100.00
69784;BME280;57054;51.978;4.498;2023-12-20T12:25:28;101458.06;;;8.16;100.00
69784;BME280;57054;51.978;4.498;2023-12-20T12:27:55;101460.69;;;8.15;100.00
69784;BME280;57054;51.978;4.498;2023-12-20T12:30:20;101456.28;;;8.18;100.00
69784;BME280;57054;51.978;4.498;2023-12-20T12:32:47;101464.97;;;8.19;100.00
69784;BME280;57054;51.978;4.498;2023-12-20T12:35:13;101440.56;;;8.21;100.00
69784;BME280;57054;51.978;4.498;2023-12-20T12:37:40;101435.31;;;8.23;100.00
69784;BME280;57054;51.978;4.498;2023-12-20T12:40:07;101429.25;;;8.22;100.00
69784;BME280;57054;51.978;4.498;2023-12-20T12:42:36;101430.97;;;8.22;100.00
69784;BME280;57054;51.978;4.498;2023-12-20T12:45:01;101432.72;;;8.23;100.00
69784;BME280;57054;51.978;4.498;2023-12-20T12:47:27;101437.94;;;8.23;100.00
69784;BME280;57054;51.978;4.498;2023-12-20T12:49:52;101425.75;;;8.22;100.00
69784;BME280;57054;51.978;4.498;2023-12-20T12:52:19;101426.63;;;8.22;100.00
69784;BME280;57054;51.978;4.498;2023-12-20T12:54:44;101431.00;;;8.20;100.00